createdAt,value
2019-02-20T00:04:51.382Z,13.05
2019-02-20T00:10:55.624Z,13.68
2019-02-20T00:16:59.981Z,17.57
2019-02-20T00:23:04.193Z,18.25
2019-02-20T00:29:08.397Z,14.47
2019-02-20T00:35:12.655Z,16.52
2019-02-20T00:41:16.918Z,15.85
2019-02-20T00:47:32.160Z,18.50
2019-02-20T00:53:41.678Z,15.75
2019-02-20T00:59:45.940Z,13.10
2019-02-20T01:05:50.198Z,19.30
2019-02-20T01:11:54.452Z,17.87
2019-02-20T01:17:58.755Z,17.87
2019-02-20T01:24:03.042Z,19.32
2019-02-20T01:30:07.503Z,18.63
2019-02-20T01:36:11.750Z,17.35
2019-02-20T01:42:16.023Z,19.55
2019-02-20T01:48:20.255Z,20.50
2019-02-20T01:54:24.519Z,25.57
2019-02-20T02:00:29.020Z,24.03
2019-02-20T02:06:33.397Z,30.12
2019-02-20T02:12:37.624Z,31.57
2019-02-20T02:18:41.880Z,20.03
2019-02-20T02:24:46.086Z,19.73
2019-02-20T02:30:50.467Z,20.70
2019-02-20T02:36:54.729Z,20.30
2019-02-20T02:42:59.104Z,23.57
2019-02-20T02:49:03.278Z,19.03
2019-02-20T02:55:07.665Z,19.13
2019-02-20T03:01:11.873Z,25.03
2019-02-20T03:07:16.201Z,21.73
2019-02-20T03:13:20.401Z,21.07
2019-02-20T03:19:24.740Z,23.70
2019-02-20T03:25:29.013Z,21.07
2019-02-20T03:31:33.285Z,25.00
2019-02-20T03:37:37.528Z,25.53
2019-02-20T03:43:41.803Z,23.20
2019-02-20T03:49:46.003Z,22.37
2019-02-20T03:55:50.396Z,23.63
2019-02-20T04:01:54.678Z,21.07
2019-02-20T04:07:59.310Z,27.77
2019-02-20T04:14:03.850Z,23.60
2019-02-20T04:20:08.435Z,26.37
2019-02-20T04:26:12.710Z,26.33
2019-02-20T04:32:17.014Z,24.03
2019-02-20T04:38:21.206Z,25.03
2019-02-20T04:44:25.987Z,23.90
2019-02-20T04:50:32.086Z,32.00
2019-02-20T04:56:36.289Z,27.33
2019-02-20T05:02:40.531Z,32.07
2019-02-20T05:08:44.777Z,28.50
2019-02-20T05:14:49.051Z,33.57
2019-02-20T05:20:53.266Z,32.37
2019-02-20T05:26:57.453Z,29.77
2019-02-20T05:33:01.778Z,26.53
2019-02-20T05:39:06.896Z,34.57
2019-02-20T05:45:11.258Z,26.27
2019-02-20T05:51:15.473Z,28.00
2019-02-20T05:57:19.767Z,32.13
2019-02-20T06:03:24.058Z,26.47
2019-02-20T06:09:28.329Z,34.53
2019-02-20T06:15:32.536Z,27.87
2019-02-20T06:21:36.959Z,30.63
2019-02-20T06:27:41.242Z,30.83
2019-02-20T06:33:45.547Z,29.23
2019-02-20T06:39:49.733Z,29.70
2019-02-20T06:45:54.219Z,25.70
2019-02-20T06:51:58.373Z,28.27
2019-02-20T06:58:02.767Z,35.13
2019-02-20T07:04:06.985Z,34.27
2019-02-20T07:10:37.549Z,31.90
2019-02-20T07:17:14.245Z,32.83
2019-02-20T07:23:31.978Z,32.50
2019-02-20T07:30:04.714Z,34.07
2019-02-20T07:36:08.937Z,37.07
2019-02-20T07:42:13.187Z,30.53
2019-02-20T07:48:17.481Z,37.53
2019-02-20T07:54:21.676Z,32.33
2019-02-20T08:00:26.006Z,28.77
2019-02-20T08:06:30.565Z,27.90
2019-02-20T08:12:34.825Z,35.87
2019-02-20T08:18:39.192Z,54.73
2019-02-20T08:24:43.407Z,32.30
2019-02-20T08:30:47.768Z,40.47
2019-02-20T08:36:52.024Z,59.07
2019-02-20T08:42:56.298Z,35.30
2019-02-20T08:49:00.572Z,29.17
2019-02-20T08:55:05.213Z,27.83
2019-02-20T09:01:09.587Z,27.87
2019-02-20T09:07:13.821Z,22.45
2019-02-20T09:13:18.073Z,25.85
2019-02-20T09:19:22.270Z,21.68
2019-02-20T09:25:26.711Z,18.73
2019-02-20T09:31:30.939Z,23.53
2019-02-20T09:37:35.895Z,22.00
2019-02-20T09:43:40.155Z,23.52
2019-02-20T09:49:44.348Z,18.85
2019-02-20T09:55:51.483Z,17.02
2019-02-20T10:01:54.614Z,14.95
2019-02-20T10:07:59.087Z,18.52
2019-02-20T10:14:03.261Z,16.65
2019-02-20T10:20:08.527Z,16.62
2019-02-20T10:26:12.792Z,16.73
2019-02-20T10:32:17.109Z,17.82
2019-02-20T10:38:21.334Z,14.03
2019-02-20T10:44:25.702Z,12.13
2019-02-20T10:50:29.947Z,14.50
2019-02-20T10:56:34.333Z,13.65
2019-02-20T11:02:38.570Z,13.58
2019-02-20T11:08:42.837Z,13.20
2019-02-20T11:14:48.852Z,13.08
2019-02-20T11:20:53.028Z,12.47
2019-02-20T11:26:57.255Z,12.18
2019-02-20T11:33:03.379Z,11.57
2019-02-20T11:39:07.628Z,12.47
2019-02-20T11:45:12.014Z,15.65
2019-02-20T11:51:16.208Z,11.65
2019-02-20T11:57:20.404Z,13.00
2019-02-20T12:03:24.804Z,13.48
2019-02-20T12:09:29.007Z,17.00
2019-02-20T12:15:33.285Z,13.70
2019-02-20T12:21:37.546Z,13.25
2019-02-20T12:27:41.920Z,14.65
2019-02-20T12:33:46.303Z,12.07
2019-02-20T12:39:50.592Z,14.60
2019-02-20T12:45:54.896Z,9.20
2019-02-20T12:52:00.146Z,11.33
2019-02-20T12:58:04.728Z,13.22
2019-02-20T13:04:09.009Z,13.10
2019-02-20T13:10:13.406Z,13.25
2019-02-20T13:16:17.601Z,16.55
2019-02-20T13:22:21.881Z,12.93
2019-02-20T13:28:26.123Z,11.73
2019-02-20T13:34:30.400Z,11.18
2019-02-20T13:40:36.416Z,10.38
2019-02-20T13:46:40.769Z,12.18
2019-02-20T13:52:51.963Z,9.03
2019-02-20T13:58:51.043Z,8.33
2019-02-20T14:04:55.304Z,10.18
2019-02-20T14:10:59.616Z,10.65
2019-02-20T14:17:04.099Z,8.73
2019-02-20T14:23:08.489Z,7.58
2019-02-20T14:29:12.873Z,9.63
2019-02-20T14:35:18.118Z,8.90
2019-02-20T14:41:22.398Z,6.40
2019-02-20T14:47:26.753Z,6.53
2019-02-20T14:53:31.278Z,7.75
2019-02-20T14:59:35.630Z,5.30
2019-02-20T15:05:39.938Z,3.45
2019-02-20T15:11:45.072Z,7.08
2019-02-20T15:17:49.423Z,7.87
2019-02-20T15:23:54.144Z,6.67
2019-02-20T15:29:58.553Z,4.58
2019-02-20T15:36:02.825Z,10.80
2019-02-20T15:42:07.176Z,9.53
2019-02-20T15:48:11.435Z,5.50
2019-02-20T15:54:15.811Z,9.93
2019-02-20T16:00:21.365Z,9.78
2019-02-20T16:06:25.642Z,12.93
2019-02-20T16:12:30.016Z,11.95
2019-02-20T16:18:34.601Z,11.90
2019-02-20T16:24:38.918Z,12.50
2019-02-20T16:30:43.616Z,15.63
2019-02-20T16:36:49.224Z,12.73
2019-02-20T16:42:53.610Z,15.83
2019-02-20T16:48:57.874Z,21.57
2019-02-20T16:55:04.625Z,15.23
2019-02-20T17:01:09.047Z,14.10
2019-02-20T17:07:13.365Z,17.67
2019-02-20T17:13:17.625Z,18.12
2019-02-20T17:19:21.923Z,17.45
2019-02-20T17:25:26.285Z,20.95
2019-02-20T17:31:30.563Z,30.88
2019-02-20T17:37:35.079Z,26.35
2019-02-20T17:43:39.391Z,19.07
2019-02-20T17:49:43.822Z,16.85
2019-02-20T17:55:48.432Z,23.57
2019-02-20T18:01:52.784Z,16.40
2019-02-20T18:07:57.065Z,17.90
2019-02-20T18:14:01.356Z,18.40
2019-02-20T18:20:05.784Z,20.70
2019-02-20T18:26:10.017Z,19.37
2019-02-20T18:32:14.336Z,19.85
2019-02-20T18:38:19.441Z,20.17
2019-02-20T18:44:23.772Z,21.75
2019-02-20T18:50:28.043Z,22.67
2019-02-20T18:56:34.044Z,24.57
2019-02-20T19:02:38.862Z,27.30
2019-02-20T19:08:45.687Z,25.15
2019-02-20T19:15:25.425Z,31.35
2019-02-20T19:21:48.495Z,27.95
2019-02-20T19:28:29.270Z,30.95
2019-02-20T19:35:08.794Z,26.40
2019-02-20T19:42:01.432Z,26.37
2019-02-20T19:48:47.142Z,22.82
2019-02-20T19:55:07.344Z,23.92
2019-02-20T20:01:40.629Z,26.70
2019-02-20T20:08:08.583Z,23.85
2019-02-20T20:15:15.721Z,22.02
2019-02-20T20:21:41.401Z,25.40
2019-02-20T20:28:10.281Z,31.05
2019-02-20T20:35:15.547Z,28.90
2019-02-20T20:41:41.305Z,26.68
2019-02-20T20:48:18.299Z,25.43
2019-02-20T20:54:56.015Z,37.58
2019-02-20T21:01:36.723Z,39.27
2019-02-20T21:08:00.434Z,30.27
2019-02-20T21:14:41.378Z,30.97
2019-02-20T21:21:23.567Z,31.00
2019-02-20T21:27:51.353Z,29.42
2019-02-20T21:34:32.402Z,31.17
2019-02-20T21:40:51.290Z,31.57
2019-02-20T21:47:45.452Z,34.08
2019-02-20T21:54:45.714Z,32.25
2019-02-20T22:01:34.915Z,31.27
2019-02-20T22:08:08.823Z,33.35
2019-02-20T22:14:21.445Z,34.88
2019-02-20T22:21:08.482Z,29.95
2019-02-20T22:27:32.906Z,32.75
2019-02-20T22:34:21.735Z,33.38
2019-02-20T22:40:42.748Z,31.27
2019-02-20T22:47:12.676Z,31.10
2019-02-20T22:53:44.758Z,30.12
2019-02-20T23:00:21.275Z,30.62
2019-02-20T23:06:51.461Z,31.12
2019-02-20T23:13:52.048Z,26.27
2019-02-20T23:19:56.466Z,30.68
2019-02-20T23:26:00.731Z,30.62
2019-02-20T23:32:04.991Z,31.10
2019-02-20T23:38:09.341Z,28.65
2019-02-20T23:44:13.575Z,28.67
2019-02-20T23:50:17.861Z,28.67
2019-02-20T23:56:22.194Z,30.82
